Weather reports worldwide

Advertisment
Sutton bonington, United Kingdom (99025): temperature & dewpoint: 19.05.2018 04:00:00 - 25.05.2018 04:00:00 (BST)Sutton bonington, United Kingdom (99025): temperature -20cm & temperature -100cm: 19.05.2018 04:00:00 - 25.05.2018 04:00:00 (BST)Sutton bonington, United Kingdom (99025): wind speed: 19.05.2018 04:00:00 - 25.05.2018 04:00:00 (BST)Sutton bonington, United Kingdom (99025): wind direction: 19.05.2018 04:00:00 - 25.05.2018 04:00:00 (BST)Sutton bonington, United Kingdom (99025): precipitation: 19.05.2018 04:00:00 - 25.05.2018 04:00:00 (BST)
Date & Time tt [°C] td [°C] tt -20cm [°C] tt -100cm [°C] ff [km/h] ff [kn] dd rr [mm]
25.05.2018 04:00:00 11,2 9,8 - - 11 6 N -
25.05.2018 03:00:00 11,7 10,3 - - 11 6 N 0,2
25.05.2018 02:00:00 12,3 10,0 - - 11 6 NNE 0,0
25.05.2018 01:00:00 12,9 10,3 - - 4 2 NNW 0,2
25.05.2018 00:00:00 13,3 9,9 - - 9 5 NNE 0,0
24.05.2018 23:00:00 14,2 9,6 - - 13 7 NNE 0,0
24.05.2018 22:00:00 14,7 10,0 - - 13 7 NNE 0,0
24.05.2018 21:00:00 16,4 9,9 - - 16 9 NE 0,0
24.05.2018 20:00:00 17,8 10,0 - - 18 10 NE 0,0
24.05.2018 19:00:00 18,9 9,7 - - 18 10 NE 0,0
24.05.2018 18:00:00 19,7 9,3 - - 21 11 NE 0,0
24.05.2018 17:00:00 20,0 11,2 - - 21 11 NE 0,0
24.05.2018 16:00:00 19,6 12,3 - - 22 12 ENE 0,0
24.05.2018 15:00:00 18,2 11,6 - - 22 12 ENE 0,0
24.05.2018 14:00:00 16,0 10,6 - - 18 10 NE 0,0
24.05.2018 13:00:00 14,3 11,1 - - 18 10 NE 0,0
24.05.2018 12:00:00 12,3 9,6 - - 21 11 NE 0,0
24.05.2018 11:00:00 11,5 9,2 - - 18 10 NE 0,0
24.05.2018 10:00:00 10,6 8,7 14,7 14,4 16 9 NE 0,0
24.05.2018 09:00:00 10,2 8,3 - - 16 9 NE 0,0
24.05.2018 08:00:00 9,7 7,8 - - 18 10 NE 0,0
24.05.2018 07:00:00 9,4 7,5 - - 16 9 NNE 0,0
24.05.2018 06:00:00 9,3 7,3 - - 18 10 NE 0,0
24.05.2018 05:00:00 9,2 7,2 - - 13 7 NE 0,0
24.05.2018 04:00:00 9,2 7,1 - - 13 7 NE 0,0
24.05.2018 03:00:00 9,2 7,2 - - 16 9 NNE 0,0
24.05.2018 02:00:00 9,1 7,2 - - 16 9 NE 0,0
24.05.2018 01:00:00 9,4 7,3 - - 15 8 NE 0,0
24.05.2018 00:00:00 9,4 7,3 - - 21 11 NE 0,0
23.05.2018 23:00:00 9,8 7,7 - - 13 7 NE 0,0
23.05.2018 22:00:00 10,9 7,8 - - 16 9 NE 0,0
23.05.2018 21:00:00 12,6 8,5 - - 16 9 NE 0,0
23.05.2018 20:00:00 14,0 9,0 - - 21 11 NE 0,0
23.05.2018 19:00:00 15,8 9,9 - - 22 12 ENE 0,0
23.05.2018 18:00:00 16,9 10,1 - - 16 9 NE 0,0
23.05.2018 17:00:00 17,4 11,2 - - 21 11 NE 0,0
23.05.2018 16:00:00 17,4 10,2 - - 21 11 NE 0,0
23.05.2018 15:00:00 17,2 10,4 - - 15 8 NE 0,0
23.05.2018 14:00:00 16,1 10,0 - - 21 11 NE 0,0
23.05.2018 13:00:00 14,0 8,4 - - 18 10 NE 0,0
23.05.2018 12:00:00 14,3 9,4 - - 18 10 NE 0,0
23.05.2018 11:00:00 12,7 8,5 - - 22 12 NE 0,0
23.05.2018 10:00:00 11,4 7,8 14,7 14,2 18 10 NNE 0,0
23.05.2018 09:00:00 10,9 7,4 - - 21 11 NE 0,0
23.05.2018 08:00:00 10,6 7,4 - - 16 9 NE 0,0
23.05.2018 07:00:00 10,2 7,0 - - 16 9 NNE 0,0
23.05.2018 06:00:00 9,9 6,8 - - 22 12 NNE 0,0
23.05.2018 05:00:00 9,8 6,8 - - 18 10 NNE 0,0
23.05.2018 04:00:00 10,0 7,1 - - 18 10 NNE 0,0
23.05.2018 03:00:00 10,3 7,4 - - 15 8 NE 0,0
23.05.2018 02:00:00 10,4 7,4 - - 15 8 NNE 0,0
23.05.2018 01:00:00 10,7 7,4 - - 13 7 NNE 0,0
23.05.2018 00:00:00 11,0 7,5 - - 13 7 N 0,0
22.05.2018 23:00:00 12,0 7,9 - - 16 9 NE 0,0
22.05.2018 22:00:00 13,1 8,4 - - 16 9 NNE 0,0
22.05.2018 21:00:00 14,6 8,6 - - 18 10 NNE 0,0
22.05.2018 20:00:00 16,2 8,8 - - 18 10 NNE 0,0
22.05.2018 19:00:00 17,4 9,3 - - 21 11 NNE 0,0
22.05.2018 18:00:00 19,1 9,9 - - 16 9 NNE 0,0
22.05.2018 17:00:00 19,6 8,8 - - 24 13 NE 0,0
22.05.2018 16:00:00 20,0 9,7 - - 22 12 NNE 0,0
22.05.2018 15:00:00 19,4 10,8 - - 26 14 NNE 0,0
22.05.2018 14:00:00 18,7 10,5 - - 24 13 NNE 0,0
22.05.2018 13:00:00 17,7 10,4 - - 24 13 NNE 0,0
22.05.2018 12:00:00 16,8 10,2 - - 22 12 N 0,0
22.05.2018 11:00:00 15,8 9,5 - - 21 11 NNE 0,0
22.05.2018 10:00:00 14,7 8,9 14,7 14,0 18 10 N 0,0
22.05.2018 09:00:00 13,0 8,3 - - 21 11 N 0,0
22.05.2018 08:00:00 12,3 8,3 - - 21 11 NNE 0,0
22.05.2018 07:00:00 11,8 8,3 - - 18 10 NNE 0,0
22.05.2018 06:00:00 11,2 8,0 - - 15 8 NNE 0,0
22.05.2018 05:00:00 9,9 7,4 - - 8 4 NNW 0,0
22.05.2018 04:00:00 10,1 7,4 - - 2 1 W 0,0
22.05.2018 03:00:00 11,3 7,5 - - 8 4 N 0,0
22.05.2018 02:00:00 11,1 7,4 - - 4 2 NNW 0,0
22.05.2018 01:00:00 11,4 7,2 - - 4 2 ENE 0,0
22.05.2018 00:00:00 13,4 8,1 - - 4 2 NE 0,0
21.05.2018 23:00:00 13,7 8,2 - - 11 6 ENE 0,0
21.05.2018 22:00:00 16,0 8,5 - - 5 3 NE 0,0
21.05.2018 21:00:00 17,1 8,4 - - 11 6 ENE 0,0
21.05.2018 20:00:00 17,5 8,9 - - 9 5 ENE 0,0
21.05.2018 19:00:00 20,9 8,4 - - 13 7 ENE 0,0
21.05.2018 18:00:00 21,8 9,1 - - 16 9 ENE 0,0
21.05.2018 17:00:00 22,2 8,5 - - 16 9 ENE 0,0
21.05.2018 16:00:00 22,5 10,3 - - 15 8 NE 0,0
21.05.2018 15:00:00 21,8 11,2 - - 16 9 NE 0,0
21.05.2018 14:00:00 20,9 13,0 - - 16 9 ENE 0,0
21.05.2018 13:00:00 20,2 11,1 - - 13 7 NE 0,0
21.05.2018 12:00:00 18,9 9,5 - - 9 5 ENE 0,0
21.05.2018 11:00:00 17,2 8,3 - - 11 6 ENE 0,0
21.05.2018 10:00:00 16,0 8,7 14,2 13,7 9 5 NE 0,0
21.05.2018 09:00:00 14,6 9,9 - - 5 3 ENE 0,0
21.05.2018 08:00:00 12,1 9,9 - - 4 2 ENE 0,0
21.05.2018 07:00:00 9,5 9,1 - - 0 0 N 0,0
21.05.2018 06:00:00 7,2 6,8 - - 2 1 WSW 0,0
21.05.2018 05:00:00 8,2 7,6 - - 2 1 NNW 0,0
21.05.2018 04:00:00 10,0 8,4 - - 5 3 SE 0,0
21.05.2018 03:00:00 10,2 8,8 - - 5 3 E 0,0
21.05.2018 02:00:00 11,1 9,0 - - 5 3 SE 0,0
21.05.2018 01:00:00 11,6 9,5 - - 5 3 SE 0,0
21.05.2018 00:00:00 12,0 9,9 - - 0 0 N 0,0
20.05.2018 23:00:00 12,8 10,0 - - 4 2 S 0,0
20.05.2018 22:00:00 13,0 8,5 - - 9 5 ESE 0,0
20.05.2018 21:00:00 16,6 9,3 - - 9 5 ESE 0,0
20.05.2018 20:00:00 18,3 10,2 - - 8 4 ESE 0,0
20.05.2018 19:00:00 19,7 9,7 - - 8 4 E 0,0
20.05.2018 18:00:00 20,8 9,5 - - 9 5 E 0,0
20.05.2018 17:00:00 21,3 10,0 - - 9 5 ESE 0,0
20.05.2018 16:00:00 21,4 9,2 - - 11 6 ESE 0,0
20.05.2018 15:00:00 21,2 8,3 - - 13 7 SE 0,0
20.05.2018 14:00:00 20,9 9,4 - - 9 5 E 0,0
20.05.2018 13:00:00 20,5 7,0 - - 9 5 ESE 0,0
20.05.2018 12:00:00 20,1 9,4 - - 9 5 SE 0,0
20.05.2018 11:00:00 19,1 10,3 - - 9 5 SSE 0,0
20.05.2018 10:00:00 17,0 11,1 13,9 13,4 8 4 ESE 0,0
20.05.2018 09:00:00 15,7 10,5 - - 4 2 E 0,0
20.05.2018 08:00:00 13,2 9,9 - - 4 2 E 0,0
20.05.2018 07:00:00 10,2 8,7 - - 5 3 SE 0,0
20.05.2018 06:00:00 7,6 6,8 - - 2 1 S 0,0
20.05.2018 05:00:00 8,0 6,8 - - 2 1 E 0,0
20.05.2018 04:00:00 8,4 6,1 - - 2 1 SE 0,0
20.05.2018 03:00:00 10,8 7,3 - - 9 5 SSE 0,0
20.05.2018 02:00:00 9,5 5,8 - - 8 4 SE 0,0
20.05.2018 01:00:00 10,3 5,5 - - 8 4 SE 0,0
20.05.2018 00:00:00 11,5 6,0 - - 8 4 SE 0,0
19.05.2018 23:00:00 12,6 6,4 - - 9 5 SE 0,0
19.05.2018 22:00:00 13,7 6,7 - - 9 5 SE 0,0
19.05.2018 21:00:00 15,5 6,7 - - 9 5 SE 0,0
19.05.2018 20:00:00 17,7 7,7 - - 8 4 ESE 0,0
19.05.2018 19:00:00 18,9 9,0 - - 8 4 ESE 0,0
19.05.2018 18:00:00 19,6 8,0 - - 11 6 ESE 0,0
19.05.2018 17:00:00 19,8 6,8 - - 9 5 ENE 0,0
19.05.2018 16:00:00 19,6 5,9 - - 8 4 E 0,0
19.05.2018 15:00:00 20,0 8,8 - - 9 5 SSE 0,0
19.05.2018 14:00:00 19,3 6,4 - - 5 3 E 0,0
19.05.2018 13:00:00 18,8 6,6 - - 5 3 S 0,0
19.05.2018 12:00:00 18,2 7,0 - - 5 3 ENE 0,0
19.05.2018 11:00:00 17,2 8,1 - - 5 3 NE 0,0
19.05.2018 10:00:00 15,2 9,1 13,2 13,2 4 2 ESE 0,0
19.05.2018 09:00:00 12,9 7,6 - - 4 2 NE 0,0
19.05.2018 08:00:00 10,0 7,2 - - 4 2 ESE 0,0
19.05.2018 07:00:00 7,9 6,5 - - 0 0 N 0,0
19.05.2018 06:00:00 5,0 4,5 - - 2 1 SE 0,0
19.05.2018 05:00:00 4,7 4,2 - - 4 2 SE 0,0
19.05.2018 04:00:00 5,5 4,8 - - 2 1 SSW 0,0

tt = temperature
td = dewpoint
tt -20cm = temperature -20cm
tt -100cm = temperature -100cm
ff = wind speed
dd = wind direction
rr = precipitation

Next stations